Time;durP1;ratioP1;P1;durP2;ratioP2;P2;SDS_P1;SDS_P2;PMS_P1;PMS_P2;Temp;Humidity;BMP_temperature;BMP_pressure;BME280_temperature;BME280_humidity;BME280_pressure;Samples;Min_cycle;Max_cycle;Signal;HPM_P1;HPM_P2
2022/10/21 00:00:30;;;;;;;16.93;8.00;;;13.50;99.90;;;;;;4958392;28;20653;-82
2022/10/21 00:02:56;;;;;;;13.70;7.80;;;13.50;99.90;;;;;;5011303;28;20219;-83
2022/10/21 00:05:22;;;;;;;11.53;7.63;;;13.40;99.90;;;;;;4964949;28;20184;-84
2022/10/21 00:07:48;;;;;;;14.57;9.83;;;13.40;99.90;;;;;;4989807;28;20624;-83
2022/10/21 00:10:14;;;;;;;18.13;7.50;;;13.40;99.90;;;;;;4952906;28;20243;-83
2022/10/21 00:12:39;;;;;;;14.33;8.13;;;13.40;99.90;;;;;;4981001;28;20276;-83
2022/10/21 00:15:10;;;;;;;17.17;8.80;;;13.30;99.90;;;;;;4998272;28;20199;-85
2022/10/21 00:17:42;;;;;;;12.93;8.03;;;13.30;99.90;;;;;;4999620;28;20188;-82
2022/10/21 00:20:10;;;;;;;11.70;7.10;;;13.30;99.90;;;;;;4988319;28;20224;-83
2022/10/21 00:22:36;;;;;;;14.77;8.17;;;13.30;99.90;;;;;;4988534;28;20247;-84
2022/10/21 00:25:03;;;;;;;14.80;9.43;;;13.20;99.90;;;;;;4988949;28;20250;-82
2022/10/21 00:27:29;;;;;;;11.57;7.77;;;13.20;99.90;;;;;;4989105;28;20239;-84
2022/10/21 00:29:55;;;;;;;11.70;6.97;;;13.20;99.90;;;;;;4988068;28;20661;-83
2022/10/21 00:32:20;;;;;;;12.77;8.07;;;13.20;99.90;;;;;;4988673;28;20931;-84
2022/10/21 00:34:47;;;;;;;15.50;8.57;;;13.20;99.90;;;;;;4988216;28;20354;-84
2022/10/21 00:37:13;;;;;;;16.37;8.77;;;13.20;99.90;;;;;;4984726;28;20246;-84
2022/10/21 00:39:39;;;;;;;10.90;6.53;;;13.20;99.90;;;;;;4952581;28;20666;-84
2022/10/21 00:42:11;;;;;;;13.23;7.53;;;13.20;99.90;;;;;;4987552;28;20694;-85
2022/10/21 00:44:38;;;;;;;18.17;8.10;;;13.20;99.90;;;;;;4989371;28;20192;-84
2022/10/21 00:47:09;;;;;;;13.27;7.53;;;13.20;99.90;;;;;;4987798;28;20685;-81
2022/10/21 00:49:43;;;;;;;12.07;7.67;;;13.20;99.90;;;;;;4989317;28;20224;-83
2022/10/21 00:52:16;;;;;;;10.43;6.37;;;13.10;99.90;;;;;;4985630;28;20238;-83
2022/10/21 00:54:43;;;;;;;10.20;7.40;;;13.10;99.90;;;;;;4999220;28;20226;-83
2022/10/21 00:57:10;;;;;;;15.90;9.63;;;13.10;99.90;;;;;;4998445;28;20298;-83
2022/10/21 00:59:39;;;;;;;12.60;7.00;;;13.00;99.90;;;;;;4998009;28;20246;-83
2022/10/21 01:02:05;;;;;;;18.30;8.60;;;13.00;99.90;;;;;;4995384;28;20222;-83
2022/10/21 01:04:31;;;;;;;11.13;7.53;;;13.00;99.90;;;;;;4997941;28;20588;-84
2022/10/21 01:06:58;;;;;;;11.00;7.37;;;13.00;99.90;;;;;;4996876;28;20215;-84
2022/10/21 01:09:24;;;;;;;15.77;7.93;;;13.00;99.90;;;;;;4982285;28;20217;-83
2022/10/21 01:11:50;;;;;;;11.33;6.40;;;12.90;99.90;;;;;;4967922;28;20188;-84
2022/10/21 01:14:42;;;;;;;16.07;6.70;;;13.00;99.90;;;;;;4986661;28;20320;-84
2022/10/21 01:17:38;;;;;;;13.50;6.70;;;13.00;99.90;;;;;;4988245;28;20302;-83
2022/10/21 01:20:41;;;;;;;10.47;6.97;;;12.90;99.90;;;;;;4988419;28;20219;-83
2022/10/21 01:23:34;;;;;;;12.50;6.57;;;12.90;99.90;;;;;;4987679;28;20764;-83
2022/10/21 01:26:13;;;;;;;12.63;8.37;;;12.90;99.90;;;;;;5011305;28;20689;-85
2022/10/21 01:28:53;;;;;;;11.47;7.93;;;12.90;99.90;;;;;;5011679;28;20218;-86
2022/10/21 01:31:43;;;;;;;15.87;8.37;;;12.90;99.90;;;;;;4998505;28;20223;-84
2022/10/21 01:34:15;;;;;;;13.57;7.60;;;12.90;99.90;;;;;;4998619;28;20220;-84
2022/10/21 01:36:53;;;;;;;15.30;7.97;;;12.90;99.90;;;;;;4999791;28;20219;-85
2022/10/21 01:39:27;;;;;;;10.60;6.97;;;12.90;99.90;;;;;;4995937;28;20627;-82
2022/10/21 01:42:12;;;;;;;14.17;6.70;;;13.00;99.90;;;;;;4994955;28;20179;-84
2022/10/21 01:45:24;;;;;;;9.90;7.03;;;13.10;99.90;;;;;;4987851;28;20187;-84
2022/10/21 01:48:00;;;;;;;11.63;6.53;;;13.10;99.90;;;;;;4985634;28;20262;-83
2022/10/21 01:50:29;;;;;;;12.07;7.60;;;13.10;99.90;;;;;;4984942;28;20307;-83
2022/10/21 01:53:00;;;;;;;13.60;8.47;;;13.10;99.90;;;;;;4986256;28;20255;-82
2022/10/21 01:55:30;;;;;;;18.23;9.03;;;13.20;99.90;;;;;;4992237;28;20232;-82
2022/10/21 01:58:04;;;;;;;13.27;7.77;;;13.20;99.90;;;;;;4996889;28;20299;-84
2022/10/21 02:00:31;;;;;;;11.80;8.27;;;13.30;99.90;;;;;;4997482;28;20258;-84
2022/10/21 02:02:59;;;;;;;15.63;9.70;;;13.30;99.90;;;;;;4979105;28;20227;-83
2022/10/21 02:05:29;;;;;;;12.60;7.97;;;13.30;99.90;;;;;;4987508;28;20184;-84
2022/10/21 02:07:55;;;;;;;11.23;8.27;;;13.30;99.90;;;;;;4986513;28;20228;-83
2022/10/21 02:10:24;;;;;;;16.83;8.73;;;13.20;99.90;;;;;;4973546;28;20221;-83
2022/10/21 02:12:53;;;;;;;19.77;8.57;;;13.20;99.90;;;;;;4975098;28;20711;-84
2022/10/21 02:15:22;;;;;;;11.70;7.80;;;13.20;99.90;;;;;;4997294;28;20212;-83
2022/10/21 02:17:55;;;;;;;17.53;10.27;;;13.30;99.90;;;;;;4983353;28;20272;-83
2022/10/21 02:20:23;;;;;;;11.07;7.60;;;13.30;99.90;;;;;;4994208;28;20683;-83
2022/10/21 02:22:49;;;;;;;20.23;9.17;;;13.40;99.90;;;;;;4995696;28;20231;-83
2022/10/21 02:25:26;;;;;;;19.97;9.77;;;13.40;99.90;;;;;;4989716;28;20255;-82
2022/10/21 02:27:53;;;;;;;17.43;8.87;;;13.50;99.90;;;;;;4984470;28;20227;-83
2022/10/21 02:30:19;;;;;;;19.00;7.97;;;13.50;99.90;;;;;;4980083;28;20217;-83
2022/10/21 02:33:03;;;;;;;17.03;8.87;;;13.60;99.90;;;;;;4949949;28;20193;-83
2022/10/21 02:35:35;;;;;;;18.30;8.43;;;13.70;99.90;;;;;;4965381;28;20291;-82
2022/10/21 02:38:09;;;;;;;20.33;8.77;;;13.70;99.90;;;;;;4998882;28;20678;-81
2022/10/21 02:41:01;;;;;;;19.23;7.00;;;13.80;99.90;;;;;;4985850;28;20227;-82
2022/10/21 02:43:34;;;;;;;16.93;8.50;;;13.80;99.90;;;;;;4967553;28;20736;-83
2022/10/21 02:46:06;;;;;;;14.10;8.93;;;13.80;99.90;;;;;;4983329;28;20216;-84
2022/10/21 02:48:33;;;;;;;11.30;7.83;;;13.90;99.90;;;;;;4989894;28;20262;-82
2022/10/21 02:51:02;;;;;;;18.60;10.00;;;13.90;99.90;;;;;;5000441;28;20275;-83
2022/10/21 02:53:28;;;;;;;16.70;10.10;;;14.00;99.90;;;;;;5000735;28;20176;-84
2022/10/21 02:55:53;;;;;;;13.30;9.37;;;14.00;99.90;;;;;;4975652;28;20223;-82
2022/10/21 02:58:19;;;;;;;15.57;9.10;;;14.00;99.90;;;;;;4993255;28;20231;-84
2022/10/21 03:00:45;;;;;;;18.30;8.37;;;14.10;99.90;;;;;;4998875;28;20233;-83
2022/10/21 03:03:10;;;;;;;14.07;7.77;;;14.10;99.90;;;;;;4948375;28;20245;-83
2022/10/21 03:05:36;;;;;;;17.93;9.90;;;14.10;99.90;;;;;;4964915;28;20263;-81
2022/10/21 03:08:02;;;;;;;18.30;10.03;;;14.10;99.90;;;;;;4947902;28;20216;-82
2022/10/21 03:10:28;;;;;;;17.20;8.83;;;14.10;99.90;;;;;;4984619;28;20302;-81
2022/10/21 03:12:54;;;;;;;20.10;9.90;;;14.10;99.90;;;;;;4992242;28;20570;-82
2022/10/21 03:15:20;;;;;;;16.30;10.03;;;14.10;99.90;;;;;;4986128;28;20225;-83
2022/10/21 03:17:46;;;;;;;14.47;9.03;;;14.00;99.90;;;;;;4965089;28;20200;-81
2022/10/21 03:20:12;;;;;;;15.77;8.37;;;14.10;99.90;;;;;;4979856;28;20232;-84
2022/10/21 03:22:38;;;;;;;13.70;8.37;;;14.20;99.90;;;;;;4970138;28;20277;-83
2022/10/21 03:25:04;;;;;;;12.60;8.30;;;14.10;99.90;;;;;;4994405;28;20693;-83
2022/10/21 03:27:30;;;;;;;19.80;9.37;;;14.20;99.90;;;;;;5002783;28;20883;-84
2022/10/21 03:29:56;;;;;;;17.13;7.77;;;14.20;99.90;;;;;;4951070;28;20279;-85
2022/10/21 03:32:21;;;;;;;17.50;8.67;;;14.10;99.90;;;;;;4961243;28;20192;-84
2022/10/21 03:34:47;;;;;;;18.23;8.27;;;14.10;99.90;;;;;;4969155;28;20686;-84
2022/10/21 03:37:13;;;;;;;15.90;9.07;;;14.20;99.90;;;;;;4950402;28;20281;-82
2022/10/21 03:39:38;;;;;;;12.80;9.40;;;14.20;99.90;;;;;;4978198;28;20614;-83
2022/10/21 03:42:04;;;;;;;16.87;9.00;;;14.20;99.90;;;;;;4963924;28;20702;-81
2022/10/21 03:44:30;;;;;;;11.20;9.13;;;14.20;99.90;;;;;;4998626;28;20184;-81
2022/10/21 03:46:56;;;;;;;18.50;9.40;;;14.30;99.90;;;;;;4987169;28;20251;-83
2022/10/21 03:49:22;;;;;;;10.27;7.30;;;14.40;99.90;;;;;;4952171;28;20767;-83
2022/10/21 03:51:48;;;;;;;15.73;8.27;;;14.40;99.90;;;;;;4965400;28;20235;-82
2022/10/21 03:54:15;;;;;;;15.23;8.27;;;14.50;99.90;;;;;;4996847;28;20215;-81
2022/10/21 03:56:40;;;;;;;15.40;8.77;;;14.60;99.90;;;;;;4997425;28;20209;-83
2022/10/21 03:59:06;;;;;;;16.83;9.33;;;14.70;99.90;;;;;;4998493;28;20232;-82
2022/10/21 04:01:32;;;;;;;16.13;9.63;;;14.70;99.90;;;;;;5012465;28;20235;-81
2022/10/21 04:03:58;;;;;;;17.70;9.23;;;14.70;99.90;;;;;;4997671;28;20231;-81
2022/10/21 04:06:23;;;;;;;15.10;9.37;;;14.70;99.90;;;;;;4996978;28;20234;-81
2022/10/21 04:08:49;;;;;;;14.57;9.33;;;14.70;99.90;;;;;;4995450;28;20745;-85
2022/10/21 04:11:15;;;;;;;15.83;8.87;;;14.70;99.90;;;;;;4989017;28;20331;-84
2022/10/21 04:13:40;;;;;;;13.73;8.70;;;14.70;99.90;;;;;;4955370;28;20239;-84
2022/10/21 04:16:10;;;;;;;14.67;9.77;;;14.70;99.90;;;;;;4979758;28;20242;-82
2022/10/21 04:18:35;;;;;;;12.80;7.90;;;14.70;99.90;;;;;;4996341;28;20216;-83
2022/10/21 04:21:01;;;;;;;22.87;8.53;;;14.80;99.90;;;;;;4953839;28;20562;-83
2022/10/21 04:23:27;;;;;;;14.80;10.50;;;14.80;99.90;;;;;;4998628;28;20212;-82
2022/10/21 04:25:53;;;;;;;17.70;9.37;;;14.80;99.90;;;;;;4984394;28;20634;-85
2022/10/21 04:28:18;;;;;;;12.83;10.33;;;14.80;99.90;;;;;;4986375;28;20232;-84
2022/10/21 04:30:44;;;;;;;18.77;8.07;;;14.90;99.90;;;;;;4999562;28;20216;-82
2022/10/21 04:33:10;;;;;;;14.37;7.93;;;14.90;99.90;;;;;;4953907;28;20224;-82
2022/10/21 04:35:38;;;;;;;15.60;9.53;;;15.00;99.90;;;;;;4987250;28;20255;-82
2022/10/21 04:38:03;;;;;;;13.87;8.37;;;15.00;99.90;;;;;;4967446;28;20256;-84
2022/10/21 04:40:29;;;;;;;19.60;8.80;;;15.00;99.90;;;;;;4973019;28;20221;-84
2022/10/21 04:42:55;;;;;;;13.87;7.40;;;15.00;99.90;;;;;;4979124;28;20340;-81
2022/10/21 04:45:20;;;;;;;16.33;9.23;;;15.00;99.90;;;;;;4952153;28;20256;-81
2022/10/21 04:47:46;;;;;;;14.27;8.97;;;15.00;99.90;;;;;;4949548;28;20200;-83
2022/10/21 04:50:12;;;;;;;14.40;8.30;;;15.00;99.90;;;;;;4997716;28;20612;-82
2022/10/21 04:52:38;;;;;;;17.37;9.30;;;15.10;99.90;;;;;;4994868;28;20239;-84
2022/10/21 04:55:04;;;;;;;20.87;8.77;;;15.10;99.90;;;;;;4991976;28;20223;-83
2022/10/21 04:57:30;;;;;;;13.23;9.37;;;15.00;99.90;;;;;;4980165;28;20220;-82
2022/10/21 04:59:56;;;;;;;14.03;8.03;;;15.00;99.90;;;;;;4968192;28;20713;-82
2022/10/21 05:02:22;;;;;;;16.80;9.83;;;15.00;99.90;;;;;;4988222;28;20228;-82
2022/10/21 05:04:47;;;;;;;16.07;9.17;;;15.00;99.90;;;;;;4987012;28;20235;-86
2022/10/21 05:07:13;;;;;;;13.73;7.57;;;15.00;99.90;;;;;;4990666;28;20225;-84
2022/10/21 05:09:39;;;;;;;20.10;10.03;;;15.10;99.90;;;;;;4977772;28;20991;-82
2022/10/21 05:12:05;;;;;;;15.17;7.23;;;15.10;99.90;;;;;;4996894;28;20685;-82
2022/10/21 05:14:30;;;;;;;22.23;9.57;;;15.10;99.90;;;;;;4994934;28;20283;-83
2022/10/21 05:16:56;;;;;;;12.53;8.43;;;15.00;99.90;;;;;;4995961;28;20219;-83
2022/10/21 05:19:23;;;;;;;12.90;7.57;;;15.00;99.90;;;;;;4997421;28;20263;-84
2022/10/21 05:21:48;;;;;;;16.13;8.17;;;15.00;99.90;;;;;;4992329;28;20693;-82
2022/10/21 05:24:15;;;;;;;16.03;8.17;;;14.90;99.90;;;;;;4949770;28;20231;-82
2022/10/21 05:26:40;;;;;;;15.67;9.63;;;14.90;99.90;;;;;;4966652;28;20280;-83
2022/10/21 05:29:06;;;;;;;16.37;8.83;;;14.90;99.90;;;;;;4985609;28;20224;-83
2022/10/21 05:31:32;;;;;;;13.43;8.70;;;14.90;99.90;;;;;;4955544;28;20678;-83
2022/10/21 05:33:58;;;;;;;17.43;8.73;;;14.90;99.90;;;;;;4963358;28;20708;-83
2022/10/21 05:36:24;;;;;;;14.83;7.97;;;14.80;99.90;;;;;;4997620;28;20220;-82
2022/10/21 05:38:50;;;;;;;16.70;8.97;;;14.80;99.90;;;;;;4996793;28;20214;-82
2022/10/21 05:41:15;;;;;;;15.77;8.23;;;14.80;99.90;;;;;;4985146;28;20193;-82
2022/10/21 05:43:41;;;;;;;21.27;8.97;;;14.80;99.90;;;;;;4984819;28;20279;-83
2022/10/21 05:46:08;;;;;;;14.43;8.63;;;14.80;99.90;;;;;;4986860;28;20314;-82
2022/10/21 05:48:35;;;;;;;14.23;8.77;;;14.90;99.90;;;;;;4962712;28;20235;-83
2022/10/21 05:51:01;;;;;;;17.27;10.10;;;15.00;99.90;;;;;;4951838;28;20244;-83
2022/10/21 05:53:27;;;;;;;19.83;10.43;;;15.00;99.90;;;;;;5002187;28;20195;-81
2022/10/21 05:56:04;;;;;;;16.33;9.33;;;15.10;99.90;;;;;;4994596;28;20220;-82
2022/10/21 05:58:31;;;;;;;20.20;10.10;;;15.00;99.90;;;;;;4996838;28;20215;-83
2022/10/21 06:00:58;;;;;;;25.07;13.37;;;15.00;99.90;;;;;;4986476;28;20216;-83
2022/10/21 06:03:29;;;;;;;16.83;9.97;;;14.90;99.90;;;;;;4995544;28;20619;-83
2022/10/21 06:05:59;;;;;;;16.73;9.73;;;14.80;99.90;;;;;;4967642;28;20586;-83
2022/10/21 06:08:26;;;;;;;20.67;9.77;;;14.70;99.90;;;;;;4987007;28;20214;-85
2022/10/21 06:11:03;;;;;;;19.77;9.30;;;14.60;99.90;;;;;;4967505;28;21087;-84
2022/10/21 06:13:30;;;;;;;18.40;9.60;;;14.60;99.90;;;;;;4976167;28;20224;-83
2022/10/21 06:15:56;;;;;;;12.00;7.73;;;14.50;99.90;;;;;;4978527;28;20212;-81
2022/10/21 06:18:22;;;;;;;15.93;8.70;;;14.50;99.90;;;;;;4993098;28;20230;-84
2022/10/21 06:20:48;;;;;;;19.73;8.77;;;14.40;99.90;;;;;;4984114;28;20192;-82
2022/10/21 06:23:15;;;;;;;15.83;9.60;;;14.40;99.90;;;;;;5001318;28;20211;-84
2022/10/21 06:25:41;;;;;;;15.53;8.33;;;14.30;99.90;;;;;;4974450;28;20273;-84
2022/10/21 06:28:08;;;;;;;18.40;9.47;;;14.30;99.90;;;;;;4993224;28;20641;-85
2022/10/21 06:30:34;;;;;;;15.33;8.87;;;14.30;99.90;;;;;;4992880;28;20242;-81
2022/10/21 06:32:59;;;;;;;15.37;8.87;;;14.30;99.90;;;;;;4985962;28;20636;-83
2022/10/21 06:35:25;;;;;;;15.47;10.57;;;14.20;99.90;;;;;;4968189;28;20188;-87
2022/10/21 06:37:51;;;;;;;15.63;8.00;;;14.20;99.90;;;;;;4958108;28;20565;-85
2022/10/21 06:40:17;;;;;;;18.03;9.73;;;14.20;99.90;;;;;;4991816;28;20763;-84
2022/10/21 06:42:42;;;;;;;10.77;7.63;;;14.20;99.90;;;;;;4977435;28;20290;-85
2022/10/21 06:45:08;;;;;;;16.23;8.57;;;14.20;99.90;;;;;;4981002;28;20224;-87
2022/10/21 06:47:34;;;;;;;13.70;7.93;;;14.20;99.90;;;;;;4995774;28;20638;-86
2022/10/21 06:50:02;;;;;;;18.87;9.27;;;14.30;99.90;;;;;;4985290;28;20224;-86
2022/10/21 06:52:31;;;;;;;16.17;8.93;;;14.30;99.90;;;;;;4955111;28;20240;-85
2022/10/21 06:54:56;;;;;;;19.03;10.03;;;14.30;99.90;;;;;;4981920;28;20952;-83
2022/10/21 06:57:22;;;;;;;20.67;9.63;;;14.40;99.90;;;;;;4956440;28;20326;-83
2022/10/21 06:59:48;;;;;;;22.20;8.90;;;14.50;99.90;;;;;;4992797;28;20283;-83
2022/10/21 07:02:14;;;;;;;16.93;10.77;;;14.50;99.90;;;;;;4986362;28;20251;-83
2022/10/21 07:04:43;;;;;;;18.77;10.00;;;14.60;99.90;;;;;;4953076;28;20327;-84
2022/10/21 07:07:09;;;;;;;19.77;10.03;;;14.80;99.90;;;;;;4957144;28;20243;-83
2022/10/21 07:09:35;;;;;;;20.43;11.33;;;14.90;99.90;;;;;;4949741;28;20220;-84
2022/10/21 07:12:01;;;;;;;26.33;10.07;;;15.00;99.90;;;;;;4966634;28;20192;-85
2022/10/21 07:14:27;;;;;;;20.50;10.07;;;15.00;99.90;;;;;;4985490;28;20231;-85
2022/10/21 07:16:53;;;;;;;22.17;11.33;;;15.10;99.90;;;;;;4984448;28;20693;-84
2022/10/21 07:19:18;;;;;;;27.40;10.50;;;15.40;99.90;;;;;;4974425;28;20334;-82
2022/10/21 07:21:45;;;;;;;21.47;10.30;;;15.50;99.90;;;;;;4954571;28;20215;-84
2022/10/21 07:24:11;;;;;;;23.70;11.50;;;15.40;99.90;;;;;;4985509;28;20338;-84
2022/10/21 07:26:37;;;;;;;20.37;11.07;;;15.60;99.90;;;;;;4985829;28;20751;-85
2022/10/21 07:29:03;;;;;;;23.10;10.63;;;15.80;99.90;;;;;;4984097;28;20673;-85
2022/10/21 07:31:34;;;;;;;18.97;10.70;;;16.00;99.90;;;;;;5009130;28;20230;-85
2022/10/21 07:34:00;;;;;;;22.37;11.97;;;15.90;99.90;;;;;;4994148;28;20285;-86
2022/10/21 07:36:29;;;;;;;22.47;12.00;;;16.10;99.90;;;;;;5008880;28;20704;-84
2022/10/21 07:38:59;;;;;;;20.00;10.03;;;16.10;99.90;;;;;;4993677;28;20194;-85
2022/10/21 07:41:28;;;;;;;26.13;9.77;;;16.00;99.90;;;;;;4985410;28;20323;-84
2022/10/21 07:43:54;;;;;;;18.57;8.53;;;15.90;99.90;;;;;;4984332;28;20626;-86
2022/10/21 07:46:21;;;;;;;19.40;11.13;;;15.90;99.90;;;;;;4955412;28;20220;-85
2022/10/21 07:48:47;;;;;;;17.13;8.83;;;16.10;99.90;;;;;;4948394;28;20216;-84
2022/10/21 07:51:18;;;;;;;16.60;10.07;;;16.00;99.90;;;;;;4972136;28;20239;-83
2022/10/21 07:53:44;;;;;;;24.47;10.70;;;16.00;99.90;;;;;;4994788;28;20761;-83
2022/10/21 07:56:14;;;;;;;19.30;11.03;;;16.00;99.90;;;;;;4984201;28;20611;-84
2022/10/21 07:58:40;;;;;;;15.80;8.63;;;16.20;99.90;;;;;;4985042;28;20236;-83
2022/10/21 08:01:08;;;;;;;23.37;10.13;;;16.30;99.90;;;;;;4980929;28;20338;-83
2022/10/21 08:03:34;;;;;;;16.73;8.50;;;16.40;99.90;;;;;;4995042;28;20690;-82
2022/10/21 08:06:01;;;;;;;17.23;9.10;;;16.40;99.90;;;;;;4977724;28;20196;-84
2022/10/21 08:08:27;;;;;;;15.50;10.07;;;16.50;99.90;;;;;;4975563;28;20272;-84
2022/10/21 08:10:54;;;;;;;21.53;10.43;;;16.60;99.90;;;;;;4994404;28;20219;-85
2022/10/21 08:13:20;;;;;;;17.83;8.57;;;16.70;99.90;;;;;;4990440;28;20251;-85
2022/10/21 08:15:48;;;;;;;23.40;9.17;;;16.80;99.90;;;;;;4974751;28;20267;-84
2022/10/21 08:18:15;;;;;;;18.73;8.33;;;16.70;99.90;;;;;;4970724;28;20223;-88
2022/10/21 08:20:43;;;;;;;15.23;8.20;;;16.70;99.90;;;;;;4996135;28;20184;-86
2022/10/21 08:23:14;;;;;;;20.00;8.93;;;16.70;99.90;;;;;;4985727;28;20802;-84
2022/10/21 08:25:47;;;;;;;14.40;9.47;;;16.70;99.90;;;;;;4995758;28;20228;-85
2022/10/21 08:28:13;;;;;;;16.50;8.90;;;16.80;99.90;;;;;;4997704;28;20224;-83
2022/10/21 08:30:39;;;;;;;15.47;7.70;;;16.80;99.90;;;;;;4991611;28;20697;-82
2022/10/21 08:33:04;;;;;;;12.33;7.33;;;16.90;99.90;;;;;;4987759;28;20196;-84
2022/10/21 08:35:30;;;;;;;11.43;7.80;;;17.00;99.90;;;;;;4989212;28;20180;-82
2022/10/21 08:37:56;;;;;;;17.17;9.00;;;17.20;99.90;;;;;;4988883;28;20281;-86
2022/10/21 08:40:22;;;;;;;19.07;7.30;;;17.20;99.90;;;;;;4974972;28;20221;-83
2022/10/21 08:42:48;;;;;;;15.03;8.10;;;17.10;99.90;;;;;;4952658;28;20232;-86
2022/10/21 08:45:19;;;;;;;16.07;8.60;;;17.10;99.90;;;;;;4942119;28;20231;-84
2022/10/21 08:47:51;;;;;;;14.27;7.27;;;17.20;99.90;;;;;;4997190;28;20219;-84
2022/10/21 08:50:21;;;;;;;14.53;9.27;;;17.30;99.90;;;;;;5000535;28;20564;-83
2022/10/21 08:52:52;;;;;;;14.73;8.53;;;17.10;99.90;;;;;;4997071;28;20259;-84
2022/10/21 08:55:36;;;;;;;17.87;8.33;;;17.10;99.90;;;;;;4989647;28;20308;-84
2022/10/21 08:58:03;;;;;;;14.43;8.37;;;17.10;99.90;;;;;;4983784;28;20259;-84
2022/10/21 09:00:43;;;;;;;11.87;7.37;;;17.10;99.90;;;;;;4968795;28;20583;-84
2022/10/21 09:03:14;;;;;;;14.70;8.30;;;17.20;99.90;;;;;;4970607;28;20216;-83
2022/10/21 09:05:58;;;;;;;18.17;8.00;;;17.30;99.90;;;;;;4986400;28;20276;-86
2022/10/21 09:08:49;;;;;;;13.80;8.27;;;17.40;99.90;;;;;;4988299;28;20266;-82
2022/10/21 09:11:39;;;;;;;17.60;9.10;;;17.50;99.90;;;;;;4968654;28;20216;-83
2022/10/21 09:14:26;;;;;;;13.27;7.57;;;17.70;99.90;;;;;;4993839;28;20222;-85
2022/10/21 09:17:11;;;;;;;16.43;6.90;;;17.50;99.90;;;;;;4990236;28;20501;-84
2022/10/21 09:19:45;;;;;;;13.83;7.27;;;17.50;99.90;;;;;;4973954;28;20232;-85
2022/10/21 09:22:18;;;;;;;15.27;7.10;;;17.60;99.90;;;;;;4984093;28;20223;-85
2022/10/21 09:25:14;;;;;;;10.13;6.20;;;17.60;99.90;;;;;;4993045;28;20270;-82
2022/10/21 09:27:40;;;;;;;11.73;5.90;;;17.50;99.90;;;;;;4987031;28;20302;-85
2022/10/21 09:30:07;;;;;;;17.30;6.53;;;17.50;99.90;;;;;;4969652;28;20600;-85
2022/10/21 09:32:38;;;;;;;14.43;7.70;;;17.60;99.90;;;;;;4954160;28;20192;-83
2022/10/21 09:35:17;;;;;;;11.27;6.70;;;17.70;99.90;;;;;;4986632;28;20252;-84
2022/10/21 09:37:47;;;;;;;14.70;8.27;;;17.80;99.90;;;;;;4986840;28;20269;-83
2022/10/21 09:40:16;;;;;;;13.10;6.77;;;17.80;99.90;;;;;;5002387;28;20216;-82
2022/10/21 09:42:42;;;;;;;12.73;5.83;;;17.60;99.90;;;;;;4985716;28;20737;-86
2022/10/21 09:45:19;;;;;;;14.73;7.70;;;17.70;99.90;;;;;;5002741;28;20246;-85
2022/10/21 09:47:54;;;;;;;11.50;6.60;;;17.70;99.90;;;;;;4987737;28;20184;-86
2022/10/21 09:50:20;;;;;;;11.27;6.43;;;17.70;99.90;;;;;;4967940;28;20231;-84
2022/10/21 09:52:54;;;;;;;10.03;5.20;;;17.70;99.90;;;;;;4982474;28;20244;-84
2022/10/21 09:55:20;;;;;;;12.67;6.10;;;17.60;99.90;;;;;;4993808;28;20311;-82
2022/10/21 09:57:56;;;;;;;10.47;6.00;;;17.60;99.90;;;;;;4995077;28;20222;-83
2022/10/21 10:00:40;;;;;;;12.57;6.67;;;17.60;99.90;;;;;;4993897;28;20242;-84
2022/10/21 10:03:07;;;;;;;10.20;5.90;;;17.50;99.90;;;;;;4986181;28;20550;-83
2022/10/21 10:05:46;;;;;;;8.67;5.43;;;17.40;99.90;;;;;;4985666;28;20200;-82
2022/10/21 10:08:30;;;;;;;11.73;6.73;;;17.50;99.90;;;;;;4993945;28;20258;-82
2022/10/21 10:11:03;;;;;;;12.50;6.27;;;17.40;99.90;;;;;;4987512;28;20216;-82
2022/10/21 10:13:30;;;;;;;14.93;6.33;;;17.40;99.90;;;;;;4986443;28;20236;-81
2022/10/21 10:16:14;;;;;;;8.30;6.00;;;17.30;99.90;;;;;;4975089;28;20260;-82
2022/10/21 10:18:41;;;;;;;13.53;6.50;;;17.20;99.90;;;;;;4977138;28;20562;-85
2022/10/21 10:21:12;;;;;;;11.17;6.27;;;17.20;99.90;;;;;;4994927;28;20216;-83
2022/10/21 10:24:00;;;;;;;10.47;6.67;;;17.40;99.90;;;;;;5000813;28;20203;-82
2022/10/21 10:26:36;;;;;;;8.87;6.73;;;17.40;99.90;;;;;;4984257;28;20220;-84
2022/10/21 10:29:24;;;;;;;12.30;6.37;;;17.50;99.90;;;;;;4981989;28;20224;-82
2022/10/21 10:31:57;;;;;;;8.57;5.67;;;17.40;99.90;;;;;;4989201;28;20219;-82
2022/10/21 10:34:38;;;;;;;10.77;6.37;;;17.60;99.90;;;;;;4992799;28;20727;-83
2022/10/21 10:37:14;;;;;;;12.57;6.70;;;17.70;99.90;;;;;;4986424;28;20751;-82
2022/10/21 10:39:41;;;;;;;15.23;5.53;;;17.60;99.90;;;;;;4985795;28;20259;-82
2022/10/21 10:42:07;;;;;;;12.60;5.97;;;17.50;99.90;;;;;;4967516;28;20262;-85
2022/10/21 10:44:38;;;;;;;9.70;6.27;;;17.50;99.90;;;;;;4953177;28;20196;-83
2022/10/21 10:47:07;;;;;;;7.90;5.17;;;17.50;99.90;;;;;;4981122;28;20303;-85
2022/10/21 10:49:42;;;;;;;12.73;5.27;;;17.50;99.90;;;;;;4991073;28;20219;-84
2022/10/21 10:52:12;;;;;;;15.70;6.57;;;17.50;99.90;;;;;;4987946;28;20693;-83
2022/10/21 10:54:40;;;;;;;9.30;5.27;;;17.50;99.90;;;;;;4982116;28;20235;-83
2022/10/21 10:57:14;;;;;;;8.30;5.50;;;17.50;99.90;;;;;;4982852;28;20903;-84
2022/10/21 11:00:03;;;;;;;11.10;4.83;;;17.50;99.90;;;;;;4983008;28;20223;-85
2022/10/21 11:02:41;;;;;;;6.50;4.13;;;17.50;99.90;;;;;;4979882;28;20339;-84
2022/10/21 11:05:27;;;;;;;9.43;5.60;;;17.50;99.90;;;;;;4971720;28;20492;-82
2022/10/21 11:08:00;;;;;;;9.20;5.10;;;17.60;99.90;;;;;;4958424;28;20239;-83
2022/10/21 11:10:33;;;;;;;10.17;4.50;;;17.60;99.90;;;;;;4985193;28;20262;-83
2022/10/21 11:13:01;;;;;;;6.27;4.53;;;17.70;99.90;;;;;;4986090;28;20905;-83
2022/10/21 11:15:48;;;;;;;6.90;4.23;;;17.70;99.90;;;;;;4992660;28;21028;-86
2022/10/21 11:18:17;;;;;;;9.73;4.20;;;17.70;99.90;;;;;;4985717;28;20231;-84
2022/10/21 11:21:15;;;;;;;8.97;4.50;;;17.60;99.90;;;;;;4983572;28;20212;-83
2022/10/21 11:23:50;;;;;;;7.07;3.97;;;17.60;99.90;;;;;;4981777;28;20247;-83
2022/10/21 11:26:27;;;;;;;7.60;5.07;;;17.60;99.90;;;;;;4991186;28;20304;-84
2022/10/21 11:29:00;;;;;;;10.97;5.23;;;17.60;99.90;;;;;;4993402;28;20242;-85
2022/10/21 11:31:43;;;;;;;10.77;4.97;;;17.50;99.90;;;;;;5011319;28;20314;-83
2022/10/21 11:34:21;;;;;;;10.90;5.33;;;17.60;99.90;;;;;;4995765;28;20514;-85
2022/10/21 11:37:26;;;;;;;8.60;5.90;;;17.60;99.90;;;;;;4992718;28;20180;-85
2022/10/21 11:40:10;;;;;;;7.47;4.67;;;17.70;99.90;;;;;;4990467;28;20203;-87
2022/10/21 11:42:41;;;;;;;7.37;3.97;;;17.60;99.90;;;;;;4984815;28;20354;-85
2022/10/21 11:45:32;;;;;;;10.67;5.10;;;17.70;99.90;;;;;;4986162;28;20187;-84
2022/10/21 11:48:14;;;;;;;7.03;4.63;;;17.70;99.90;;;;;;5011265;28;20215;-83
2022/10/21 11:50:52;;;;;;;7.03;4.83;;;17.60;99.90;;;;;;4985033;28;20286;-83
2022/10/21 11:53:40;;;;;;;7.00;4.57;;;17.60;99.90;;;;;;4983059;28;20243;-84
2022/10/21 11:56:17;;;;;;;6.30;3.90;;;17.60;99.90;;;;;;4990951;28;20229;-83
2022/10/21 11:59:06;;;;;;;7.40;3.90;;;17.60;99.90;;;;;;4982007;28;20222;-84
2022/10/21 12:01:58;;;;;;;6.67;3.80;;;17.50;99.90;;;;;;5013926;28;20223;-85
2022/10/21 12:04:54;;;;;;;6.60;4.10;;;17.50;99.90;;;;;;5014291;28;20314;-83
2022/10/21 12:07:46;;;;;;;6.60;3.80;;;17.50;99.90;;;;;;5013906;28;20306;-83
2022/10/21 12:10:37;;;;;;;5.77;4.03;;;17.60;99.90;;;;;;4993484;28;20375;-85
2022/10/21 12:13:14;;;;;;;4.60;3.50;;;17.60;99.90;;;;;;4988825;28;20222;-84
2022/10/21 12:15:45;;;;;;;6.83;4.20;;;17.60;99.90;;;;;;4989298;28;20184;-84
2022/10/21 12:18:17;;;;;;;10.77;4.57;;;17.70;99.90;;;;;;4988017;28;20184;-84
2022/10/21 12:20:47;;;;;;;5.90;3.30;;;17.80;99.90;;;;;;4987583;28;20270;-84
2022/10/21 12:23:19;;;;;;;7.83;4.63;;;17.70;99.90;;;;;;4973817;28;20741;-84
2022/10/21 12:25:59;;;;;;;5.80;3.20;;;17.70;99.90;;;;;;4978538;28;20259;-85
2022/10/21 12:28:49;;;;;;;5.30;3.93;;;17.70;99.90;;;;;;4988828;28;20669;-85
2022/10/21 12:31:31;;;;;;;8.03;4.43;;;17.70;99.90;;;;;;4988231;28;20711;-85
2022/10/21 12:33:57;;;;;;;10.13;3.90;;;17.90;99.90;;;;;;4987256;28;20588;-85
2022/10/21 12:36:22;;;;;;;6.77;3.97;;;18.00;99.90;;;;;;4971722;28;20200;-84
2022/10/21 12:38:51;;;;;;;5.87;3.70;;;18.10;99.90;;;;;;4996594;28;20697;-85
2022/10/21 12:41:27;;;;;;;4.70;3.50;;;18.20;99.90;;;;;;4997008;28;20311;-85
2022/10/21 12:43:59;;;;;;;6.73;3.33;;;18.50;99.90;;;;;;4992080;28;20240;-84
2022/10/21 12:46:47;;;;;;;6.30;3.40;;;18.80;99.90;;;;;;4988364;28;20752;-85
2022/10/21 12:49:27;;;;;;;8.97;3.50;;;18.90;99.90;;;;;;4987723;28;20250;-84
2022/10/21 12:52:05;;;;;;;7.03;4.03;;;19.00;99.90;;;;;;4985527;28;20318;-84
2022/10/21 12:54:42;;;;;;;6.30;3.03;;;19.30;99.90;;;;;;4988457;28;20190;-85
2022/10/21 12:57:19;;;;;;;5.77;3.10;;;19.20;99.90;;;;;;4987064;28;20244;-84